Time;durP1;ratioP1;P1;durP2;ratioP2;P2;SDS_P1;SDS_P2;PMS_P1;PMS_P2;Temp;Humidity;BMP_temperature;BMP_pressure;BME280_temperature;BME280_humidity;BME280_pressure;Samples;Min_cycle;Max_cycle;Signal;HPM_P1;HPM_P2
2021/05/17 00:02:00;;;;;;;3.50;2.08;;;;;;;12.94;79.77;98452.47;4976486;28;20097;-64
2021/05/17 00:04:33;;;;;;;4.20;2.55;;;;;;;12.94;79.50;98432.84;4976182;28;20057;-64
2021/05/17 00:07:07;;;;;;;4.75;2.67;;;;;;;13.03;79.77;98447.09;4976452;28;20047;-66
2021/05/17 00:09:40;;;;;;;4.43;2.50;;;;;;;13.08;79.42;98432.44;4976530;28;20110;-66
2021/05/17 00:12:10;;;;;;;5.40;2.25;;;;;;;13.09;79.64;98423.88;4976030;28;20042;-66
2021/05/17 00:14:41;;;;;;;6.38;2.50;;;;;;;13.11;79.27;98429.78;4976206;28;20138;-64
2021/05/17 00:17:10;;;;;;;4.28;2.35;;;;;;;13.16;79.54;98427.94;4976162;28;20055;-66
2021/05/17 00:19:42;;;;;;;4.63;2.75;;;;;;;13.18;79.28;98429.56;4976039;28;20046;-64
2021/05/17 00:22:15;;;;;;;4.90;2.20;;;;;;;13.11;79.55;98417.84;4976054;28;20074;-65
2021/05/17 00:24:50;;;;;;;4.72;2.70;;;;;;;13.14;79.59;98415.19;4975782;28;20054;-64
2021/05/17 00:27:23;;;;;;;4.10;2.15;;;;;;;13.11;79.82;98415.25;4975779;28;20058;-64
2021/05/17 00:29:57;;;;;;;4.65;2.35;;;;;;;13.10;79.85;98408.47;4975701;28;20049;-64
2021/05/17 00:32:26;;;;;;;4.53;2.40;;;;;;;13.00;80.37;98401.94;4975861;28;20050;-64
2021/05/17 00:34:56;;;;;;;4.67;2.40;;;;;;;13.04;80.40;98416.31;4975617;28;20457;-64
2021/05/17 00:37:29;;;;;;;4.18;2.15;;;;;;;12.98;80.84;98413.94;4975869;28;20383;-65
2021/05/17 00:39:59;;;;;;;5.03;2.40;;;;;;;12.97;80.95;98402.03;4975470;28;20534;-65
2021/05/17 00:42:30;;;;;;;6.07;2.55;;;;;;;12.97;81.10;98411.41;4975586;28;20054;-65
2021/05/17 00:45:05;;;;;;;5.68;2.50;;;;;;;12.90;81.32;98403.09;4975433;28;20049;-65
2021/05/17 00:47:39;;;;;;;3.83;2.17;;;;;;;12.98;81.41;98419.03;4975221;28;20097;-65
2021/05/17 00:50:14;;;;;;;5.00;2.30;;;;;;;12.98;81.79;98413.94;4975358;28;20453;-64
2021/05/17 00:52:43;;;;;;;5.82;2.60;;;;;;;12.98;81.61;98408.81;4975474;28;20063;-64
2021/05/17 00:55:17;;;;;;;5.90;2.53;;;;;;;12.97;81.84;98417.38;4975300;28;20420;-64
2021/05/17 00:57:50;;;;;;;5.63;2.50;;;;;;;12.92;81.91;98414.13;4975277;28;20071;-64
2021/05/17 01:00:27;;;;;;;4.60;2.40;;;;;;;12.91;82.16;98409.88;4975374;28;20074;-65
2021/05/17 01:03:03;;;;;;;3.60;2.13;;;;;;;12.89;82.11;98393.72;4975431;28;20058;-64
2021/05/17 01:05:47;;;;;;;4.28;2.20;;;;;;;12.94;82.15;98402.09;4975336;28;20058;-65
2021/05/17 01:08:23;;;;;;;5.40;2.10;;;;;;;12.92;82.12;98396.19;4975110;28;20059;-64
2021/05/17 01:10:58;;;;;;;4.38;2.20;;;;;;;12.95;82.25;98397.84;4975088;28;20047;-66
2021/05/17 01:13:34;;;;;;;4.22;2.17;;;;;;;12.97;82.43;98386.66;4974997;28;20047;-64
2021/05/17 01:16:08;;;;;;;5.35;2.42;;;;;;;12.87;82.25;98382.69;4975008;28;20057;-64
2021/05/17 01:18:41;;;;;;;5.72;2.45;;;;;;;12.87;82.26;98390.38;4975125;28;20047;-64
2021/05/17 01:21:18;;;;;;;5.18;2.30;;;;;;;12.81;82.51;98395.69;4975150;28;20051;-66
2021/05/17 01:23:55;;;;;;;3.72;2.05;;;;;;;12.85;82.57;98397.28;4975073;28;20512;-64
2021/05/17 01:26:31;;;;;;;3.97;2.25;;;;;;;12.83;82.85;98388.81;4974941;28;20122;-66
2021/05/17 01:29:03;;;;;;;6.00;2.60;;;;;;;12.84;82.81;98390.47;4975083;28;20066;-66
2021/05/17 01:31:38;;;;;;;4.38;2.60;;;;;;;12.83;83.13;98393.94;4975046;28;20054;-66
2021/05/17 01:34:09;;;;;;;6.05;2.38;;;;;;;12.85;82.96;98387.03;4974960;28;20125;-64
2021/05/17 01:36:45;;;;;;;6.43;2.03;;;;;;;12.85;83.26;98392.16;4974133;28;20051;-64
2021/05/17 01:39:15;;;;;;;4.65;2.30;;;;;;;12.80;83.04;98388.88;4974942;28;20467;-66
2021/05/17 01:41:50;;;;;;;4.55;2.60;;;;;;;12.78;83.29;98393.22;4974977;28;20059;-63
2021/05/17 01:44:24;;;;;;;5.63;2.25;;;;;;;12.73;83.31;98392.53;4974863;28;20055;-64
2021/05/17 01:46:58;;;;;;;4.65;2.40;;;;;;;12.75;83.45;98385.63;4974908;28;20078;-64
2021/05/17 01:49:32;;;;;;;5.10;2.40;;;;;;;12.77;83.61;98381.28;4977780;28;20408;-64
2021/05/17 01:52:05;;;;;;;6.05;2.78;;;;;;;12.74;83.57;98368.63;4978837;28;20059;-64
2021/05/17 01:54:42;;;;;;;4.05;2.47;;;;;;;12.71;83.77;98378.94;4978728;28;20081;-66
2021/05/17 01:57:16;;;;;;;4.55;2.13;;;;;;;12.73;84.03;98366.94;4977567;28;20054;-64
2021/05/17 01:59:46;;;;;;;5.38;2.20;;;;;;;12.76;83.87;98371.97;4979053;28;20378;-64
2021/05/17 02:02:18;;;;;;;3.90;2.30;;;;;;;12.76;84.10;98377.09;4978603;28;20584;-66
2021/05/17 02:04:48;;;;;;;4.25;2.42;;;;;;;12.78;83.92;98359.94;4978570;28;20121;-64
2021/05/17 02:07:20;;;;;;;4.78;2.05;;;;;;;12.76;84.06;98371.97;4978552;28;20054;-65
2021/05/17 02:09:53;;;;;;;3.80;2.40;;;;;;;12.78;83.86;98365.06;4978508;28;20456;-66
2021/05/17 02:12:24;;;;;;;3.30;2.40;;;;;;;12.81;83.90;98364.97;4978749;28;20489;-64
2021/05/17 02:14:59;;;;;;;4.45;2.60;;;;;;;12.79;84.21;98366.72;4978376;28;20125;-66
2021/05/17 02:17:37;;;;;;;4.30;2.45;;;;;;;12.74;83.79;98360.94;4977459;28;20053;-66
2021/05/17 02:20:17;;;;;;;6.20;2.38;;;;;;;12.73;83.93;98356.69;4978349;28;20440;-63
2021/05/17 02:22:52;;;;;;;5.43;2.38;;;;;;;12.74;83.83;98369.44;4978199;28;20065;-64
2021/05/17 02:25:30;;;;;;;4.88;2.47;;;;;;;12.76;83.92;98366.84;4978180;28;20436;-64
2021/05/17 02:28:06;;;;;;;4.53;2.08;;;;;;;12.83;83.87;98362.34;4978166;28;20065;-65
2021/05/17 02:30:39;;;;;;;4.05;2.25;;;;;;;12.85;83.66;98361.44;4977218;28;20081;-64
2021/05/17 02:33:12;;;;;;;3.75;2.20;;;;;;;12.89;83.47;98368.13;4978091;28;20142;-64
2021/05/17 02:35:46;;;;;;;4.25;2.60;;;;;;;12.94;83.61;98366.25;4978015;28;20121;-64
2021/05/17 02:38:20;;;;;;;3.97;2.40;;;;;;;12.98;83.45;98361.91;4978019;28;20073;-66
2021/05/17 02:40:57;;;;;;;5.43;3.00;;;;;;;12.98;83.44;98364.44;4977970;28;20058;-66
2021/05/17 02:43:32;;;;;;;4.22;2.42;;;;;;;13.00;83.22;98360.97;4978150;28;20050;-64
2021/05/17 02:46:27;;;;;;;6.00;2.55;;;;;;;13.02;83.15;98358.34;4974515;28;20074;-64
2021/05/17 02:49:01;;;;;;;5.72;2.60;;;;;;;13.01;83.32;98354.94;4977270;28;20149;-66
2021/05/17 02:51:30;;;;;;;4.75;2.50;;;;;;;13.02;83.60;98351.50;4977760;28;20062;-66
2021/05/17 02:54:27;;;;;;;3.45;1.98;;;;;;;12.99;83.67;98354.16;4977646;28;20046;-64
2021/05/17 02:57:09;;;;;;;5.45;2.97;;;;;;;13.03;83.50;98349.78;4977832;28;20035;-64
2021/05/17 03:00:19;;;;;;;5.05;2.35;;;;;;;13.06;83.48;98345.41;4977409;28;20105;-64
2021/05/17 03:02:59;;;;;;;5.20;2.40;;;;;;;13.06;83.67;98342.00;4977754;28;20054;-66
2021/05/17 03:05:40;;;;;;;5.00;2.17;;;;;;;13.08;83.87;98348.75;4977249;28;20058;-64
2021/05/17 03:08:20;;;;;;;3.78;2.42;;;;;;;13.12;83.62;98345.22;4977512;28;20054;-66
2021/05/17 03:10:53;;;;;;;5.07;2.25;;;;;;;13.14;83.39;98347.72;4977489;28;20049;-66
2021/05/17 03:13:27;;;;;;;4.50;2.50;;;;;;;13.12;83.57;98347.78;4976216;28;20057;-67
2021/05/17 03:15:58;;;;;;;3.75;2.08;;;;;;;13.13;83.40;98338.34;4977289;28;20081;-64
2021/05/17 03:18:27;;;;;;;5.77;2.27;;;;;;;13.12;83.45;98346.94;4977252;28;20049;-67
2021/05/17 03:21:00;;;;;;;5.45;2.72;;;;;;;13.08;83.43;98346.19;4976917;28;20457;-66
2021/05/17 03:23:34;;;;;;;4.68;2.42;;;;;;;13.08;83.55;98342.78;4977148;28;20086;-64
2021/05/17 03:26:10;;;;;;;3.90;2.40;;;;;;;13.05;83.49;98343.69;4977403;28;20062;-66
2021/05/17 03:28:40;;;;;;;3.95;2.28;;;;;;;12.98;83.85;98342.22;4959666;28;20109;-66
2021/05/17 03:31:12;;;;;;;4.28;2.30;;;;;;;12.94;83.39;98343.22;4976995;28;20056;-64
2021/05/17 03:33:47;;;;;;;6.65;2.60;;;;;;;12.99;83.62;98346.47;4976997;28;20086;-65
2021/05/17 03:36:19;;;;;;;6.07;3.15;;;;;;;13.00;83.51;98344.75;4976937;28;20047;-66
2021/05/17 03:38:51;;;;;;;3.38;2.35;;;;;;;12.94;83.68;98338.09;4977186;28;20051;-65
2021/05/17 03:41:23;;;;;;;5.22;2.83;;;;;;;13.04;83.53;98352.28;4976782;28;20055;-65
2021/05/17 03:43:56;;;;;;;4.97;2.40;;;;;;;13.07;83.69;98348.81;4976785;28;20077;-66
2021/05/17 03:46:28;;;;;;;4.45;2.60;;;;;;;13.08;83.55;98343.63;4976358;28;20487;-66
2021/05/17 03:49:03;;;;;;;4.38;2.50;;;;;;;13.08;83.46;98348.75;4976307;28;20097;-64
2021/05/17 03:51:36;;;;;;;6.13;2.38;;;;;;;13.06;83.75;98352.25;4976640;28;20062;-66
2021/05/17 03:54:08;;;;;;;5.00;2.30;;;;;;;13.03;83.63;98348.03;4976584;28;20490;-64
2021/05/17 03:56:37;;;;;;;4.78;2.63;;;;;;;13.04;83.99;98354.84;4976304;28;20058;-64
2021/05/17 03:59:13;;;;;;;4.72;2.33;;;;;;;13.01;83.77;98347.25;4976160;28;20448;-65
2021/05/17 04:01:46;;;;;;;5.38;2.67;;;;;;;13.05;84.60;98353.94;4976445;28;20134;-65
2021/05/17 04:04:16;;;;;;;5.05;2.50;;;;;;;13.05;84.29;98340.31;4976421;28;20138;-64
2021/05/17 04:06:58;;;;;;;5.55;2.40;;;;;;;13.05;84.29;98348.81;4974861;28;20054;-63
2021/05/17 04:14:52;;;;;;;9.30;3.20;;;;;;;13.10;84.81;98336.72;4976531;28;20078;-63
2021/05/17 04:17:24;;;;;;;5.88;3.10;;;;;;;13.10;85.03;98339.28;4976633;28;20070;-65
2021/05/17 04:19:59;;;;;;;6.45;3.20;;;;;;;13.11;85.14;98343.53;4976022;28;20137;-63
2021/05/17 04:22:32;;;;;;;4.35;3.15;;;;;;;13.16;85.03;98351.91;4975609;28;20452;-64
2021/05/17 04:25:05;;;;;;;4.50;3.20;;;;;;;13.16;84.90;98344.22;4976041;28;20055;-64
2021/05/17 04:27:38;;;;;;;5.82;3.50;;;;;;;13.14;85.27;98348.56;4975926;28;20061;-63
2021/05/17 04:30:13;;;;;;;4.88;3.35;;;;;;;13.06;85.12;98345.41;4976007;28;20061;-64
2021/05/17 04:32:45;;;;;;;8.75;3.50;;;;;;;13.08;85.67;98348.75;4975865;28;20051;-64
2021/05/17 04:35:17;;;;;;;5.82;3.50;;;;;;;13.12;85.51;98335.00;4976138;28;20043;-64
2021/05/17 04:37:49;;;;;;;6.47;3.70;;;;;;;13.18;85.94;98333.94;4975642;28;20137;-64
2021/05/17 04:40:18;;;;;;;6.85;4.13;;;;;;;13.15;85.97;98345.09;4975502;28;20133;-65
2021/05/17 04:42:50;;;;;;;6.85;4.38;;;;;;;13.17;86.16;98343.31;4975373;28;20042;-65
2021/05/17 04:45:24;;;;;;;7.80;4.10;;;;;;;13.18;86.19;98345.00;4975622;28;20434;-65
2021/05/17 04:47:53;;;;;;;7.95;5.07;;;;;;;13.20;86.65;98347.50;4975178;28;20066;-65
2021/05/17 04:50:25;;;;;;;5.43;3.95;;;;;;;13.18;86.39;98345.00;4992532;28;20095;-65
2021/05/17 04:52:57;;;;;;;18.73;8.32;;;;;;;13.19;86.79;98344.16;4994921;28;20050;-64
2021/05/17 04:55:26;;;;;;;20.08;10.15;;;;;;;13.23;86.83;98337.19;4994889;28;20054;-65
2021/05/17 04:57:55;;;;;;;21.52;9.93;;;;;;;13.26;86.88;98332.81;4994790;28;20462;-65
2021/05/17 05:00:28;;;;;;;16.57;6.50;;;;;;;13.29;86.85;98332.69;4995166;28;20125;-65
2021/05/17 05:03:00;;;;;;;7.07;4.50;;;;;;;13.31;87.06;98330.94;4994805;28;20283;-65
2021/05/17 05:05:33;;;;;;;5.55;3.35;;;;;;;13.32;86.78;98332.59;4993557;28;20050;-64
2021/05/17 05:08:05;;;;;;;7.60;4.72;;;;;;;13.31;87.05;98330.94;4994663;28;20054;-64
2021/05/17 05:10:34;;;;;;;6.25;4.05;;;;;;;13.35;87.12;98331.66;4994690;28;20050;-65
2021/05/17 05:13:06;;;;;;;5.63;3.43;;;;;;;13.34;87.09;98335.94;4994590;28;20038;-65
2021/05/17 05:15:36;;;;;;;5.65;4.03;;;;;;;13.35;87.19;98340.19;4994651;28;20054;-65
2021/05/17 05:18:08;;;;;;;4.93;3.38;;;;;;;13.36;87.05;98339.28;4994764;28;20060;-64
2021/05/17 05:20:39;;;;;;;5.10;3.10;;;;;;;13.36;86.88;98344.41;4994300;28;20086;-65
2021/05/17 05:23:15;;;;;;;6.38;3.42;;;;;;;13.34;86.76;98340.25;4993872;28;20126;-64
2021/05/17 05:28:39;;;;;;;5.88;3.65;;;;;;;13.28;86.89;98341.28;4994743;28;20050;-65
2021/05/17 05:31:15;;;;;;;5.47;3.67;;;;;;;13.27;86.92;98344.72;4994266;28;20050;-65
2021/05/17 05:33:47;;;;;;;8.55;4.50;;;;;;;13.26;86.95;98358.44;4994452;28;20046;-65
2021/05/17 05:36:19;;;;;;;8.85;5.03;;;;;;;13.27;87.00;98349.84;4994355;28;20489;-64
2021/05/17 05:38:51;;;;;;;6.75;4.40;;;;;;;13.27;87.15;98349.84;4994367;28;20057;-64
2021/05/17 05:41:23;;;;;;;7.25;3.63;;;;;;;13.25;86.84;98361.84;4994063;28;20464;-64
2021/05/17 05:43:56;;;;;;;6.45;3.38;;;;;;;13.21;87.14;98365.41;4994318;28;20113;-65
2021/05/17 05:46:29;;;;;;;7.93;3.95;;;;;;;13.14;86.82;98355.41;4994249;28;20053;-64
2021/05/17 05:49:01;;;;;;;7.50;4.10;;;;;;;13.08;87.08;98364.13;4994206;28;20054;-64
2021/05/17 05:51:33;;;;;;;6.97;3.75;;;;;;;13.02;87.34;98372.00;4993887;28;20117;-64
2021/05/17 05:54:06;;;;;;;8.60;4.20;;;;;;;12.95;87.21;98375.63;4994129;28;20058;-63
2021/05/17 05:56:39;;;;;;;7.57;4.30;;;;;;;12.95;87.29;98367.94;4993893;28;20042;-63
2021/05/17 05:59:26;;;;;;;7.13;4.35;;;;;;;12.86;87.47;98378.44;4994246;28;20054;-63
2021/05/17 06:01:59;;;;;;;9.73;4.00;;;;;;;12.84;87.34;98372.53;4994153;28;20051;-62
2021/05/17 06:04:29;;;;;;;6.80;4.07;;;;;;;12.81;87.62;98362.41;4994408;28;20421;-62
2021/05/17 06:07:01;;;;;;;6.72;3.30;;;;;;;12.86;87.27;98372.50;4993899;28;20047;-63
2021/05/17 06:09:31;;;;;;;7.45;3.67;;;;;;;12.84;87.64;98380.22;4994150;28;20100;-62
2021/05/17 06:12:00;;;;;;;7.53;4.32;;;;;;;12.87;87.61;98379.28;4993741;28;20464;-62
2021/05/17 06:14:31;;;;;;;5.53;3.25;;;;;;;12.85;87.66;98374.22;4994220;28;20051;-63
2021/05/17 06:17:06;;;;;;;9.35;4.07;;;;;;;12.85;87.60;98376.78;4994043;28;20068;-64
2021/05/17 06:19:37;;;;;;;7.25;3.65;;;;;;;12.85;87.59;98373.38;4993963;28;20065;-62
2021/05/17 06:22:09;;;;;;;5.90;3.60;;;;;;;12.82;87.81;98376.88;4993608;28;20422;-62
2021/05/17 06:24:38;;;;;;;6.30;3.50;;;;;;;12.84;87.65;98375.09;4993932;28;20065;-61
2021/05/17 06:27:09;;;;;;;6.82;3.70;;;;;;;12.77;87.82;98368.50;4993862;28;20153;-62
2021/05/17 06:29:39;;;;;;;4.78;2.80;;;;;;;12.80;87.81;98376.09;4993908;28;20058;-62
2021/05/17 06:32:12;;;;;;;4.63;2.55;;;;;;;12.75;87.95;98370.28;4994013;28;20078;-62
2021/05/17 06:34:49;;;;;;;4.75;2.63;;;;;;;12.75;87.96;98370.28;4996486;28;20054;-62
2021/05/17 06:37:21;;;;;;;6.50;3.00;;;;;;;12.76;87.81;98370.22;4997417;28;20136;-62
2021/05/17 06:39:50;;;;;;;4.50;2.58;;;;;;;12.73;87.96;98364.38;4997576;28;20058;-62
2021/05/17 06:42:22;;;;;;;3.92;2.78;;;;;;;12.76;88.07;98366.84;4996996;28;20042;-63
2021/05/17 06:44:52;;;;;;;5.38;2.50;;;;;;;12.77;88.09;98371.06;4997537;28;20419;-63
2021/05/17 06:47:22;;;;;;;9.02;3.28;;;;;;;12.80;88.08;98373.53;4996901;28;20062;-64
2021/05/17 06:49:52;;;;;;;6.90;3.70;;;;;;;12.79;88.20;98364.16;4997088;28;20129;-63
2021/05/17 06:52:25;;;;;;;6.10;3.30;;;;;;;12.83;87.90;98365.75;4997172;28;20518;-61
2021/05/17 06:55:00;;;;;;;4.35;2.72;;;;;;;12.82;88.13;98361.50;4997419;28;20046;-61
2021/05/17 06:57:41;;;;;;;4.00;2.53;;;;;;;12.84;88.03;98367.41;4997323;28;20431;-62
2021/05/17 07:00:22;;;;;;;5.80;3.45;;;;;;;12.85;88.02;98361.44;4996975;28;20465;-62
2021/05/17 07:02:56;;;;;;;3.85;2.40;;;;;;;12.83;88.22;98363.19;4996827;28;20556;-62
2021/05/17 07:05:29;;;;;;;4.85;1.98;;;;;;;12.79;88.50;98366.72;4996949;28;20050;-63
2021/05/17 07:13:23;;;;;;;3.25;2.15;;;;;;;12.83;88.17;98352.97;4996824;28;20054;-61
2021/05/17 07:15:56;;;;;;;3.75;2.40;;;;;;;12.83;88.44;98345.28;4996681;28;20064;-62
2021/05/17 07:18:29;;;;;;;5.05;2.30;;;;;;;12.79;88.41;98344.53;4996703;28;20062;-62
2021/05/17 07:23:42;;;;;;;4.00;1.95;;;;;;;12.77;88.50;98343.75;4996306;28;20459;-61
2021/05/17 07:26:15;;;;;;;;;;;;;;;12.75;88.59;98340.41;4997007;28;20408;-61
2021/05/17 07:28:50;;;;;;;3.78;1.85;;;;;;;12.75;88.32;98344.66;4996506;28;19952;-62
2021/05/17 07:31:22;;;;;;;3.55;1.65;;;;;;;12.77;88.42;98348.00;4996501;28;20062;-61
2021/05/17 07:33:52;;;;;;;3.78;1.60;;;;;;;12.73;88.28;98347.28;4996640;28;20392;-62
2021/05/17 07:36:21;;;;;;;3.85;1.80;;;;;;;12.75;88.34;98349.78;4996289;28;20065;-62
2021/05/17 07:38:51;;;;;;;3.57;1.97;;;;;;;12.77;88.52;98342.91;4996227;28;20100;-63
2021/05/17 07:41:23;;;;;;;3.38;1.63;;;;;;;12.74;88.22;98343.81;4996078;28;20066;-62
2021/05/17 07:43:55;;;;;;;3.00;1.70;;;;;;;12.75;88.43;98344.66;4996258;28;20054;-63
2021/05/17 07:46:28;;;;;;;2.88;1.63;;;;;;;12.75;88.48;98344.66;4994892;28;20043;-62
2021/05/17 07:51:43;;;;;;;3.47;1.80;;;;;;;12.77;88.23;98340.34;4996062;28;20056;-62
2021/05/17 07:54:13;;;;;;;3.15;1.70;;;;;;;12.76;88.23;98336.13;4996010;28;20069;-62
2021/05/17 07:56:46;;;;;;;6.07;2.05;;;;;;;12.78;88.38;98336.91;4995998;28;20492;-63
2021/05/17 07:59:17;;;;;;;3.40;1.80;;;;;;;12.80;88.40;98335.13;4995835;28;20531;-62
2021/05/17 08:01:53;;;;;;;2.92;1.83;;;;;;;12.83;88.34;98342.72;4995597;28;20053;-62
2021/05/17 08:04:26;;;;;;;3.13;1.83;;;;;;;12.79;88.51;98343.69;4995745;28;20070;-61
2021/05/17 08:06:58;;;;;;;2.88;1.67;;;;;;;12.77;88.45;98345.47;4995435;28;20050;-61
2021/05/17 08:09:27;;;;;;;4.05;1.80;;;;;;;12.80;88.39;98332.56;4995770;28;20050;-62
2021/05/17 08:11:56;;;;;;;3.10;1.80;;;;;;;12.84;88.32;98338.44;4995622;28;20051;-61
2021/05/17 08:14:28;;;;;;;3.37;2.07;;;;;;;12.75;88.27;98337.84;4994687;28;20038;-63
2021/05/17 08:16:57;;;;;;;3.55;1.73;;;;;;;12.76;88.54;98331.81;4995673;28;20104;-61
2021/05/17 08:19:32;;;;;;;3.30;1.88;;;;;;;12.74;88.46;98332.78;4995578;28;20062;-63
2021/05/17 08:22:06;;;;;;;2.88;1.63;;;;;;;12.77;88.72;98330.09;4995188;28;20452;-61
2021/05/17 08:24:38;;;;;;;3.13;1.73;;;;;;;12.78;88.66;98329.22;4995436;28;20062;-61
2021/05/17 08:27:08;;;;;;;2.70;1.40;;;;;;;12.75;88.41;98326.75;4995756;28;20066;-62
2021/05/17 08:29:38;;;;;;;2.00;1.10;;;;;;;12.70;88.36;98320.94;4995346;28;20053;-61
2021/05/17 08:32:10;;;;;;;3.10;1.60;;;;;;;12.67;88.48;98315.91;4995258;28;20046;-62
2021/05/17 08:34:43;;;;;;;3.03;1.67;;;;;;;12.70;88.37;98315.81;4995183;28;20054;-61
2021/05/17 08:37:12;;;;;;;3.03;1.60;;;;;;;12.72;88.53;98314.03;4995239;28;20100;-61
2021/05/17 08:39:44;;;;;;;3.47;1.60;;;;;;;12.72;88.56;98314.03;4995083;28;20054;-62
2021/05/17 08:42:36;;;;;;;3.42;1.40;;;;;;;12.74;88.34;98312.28;4994778;28;20078;-61
2021/05/17 08:45:09;;;;;;;2.42;1.35;;;;;;;12.77;88.61;98318.13;4995111;28;20133;-61
2021/05/17 08:47:38;;;;;;;2.55;1.45;;;;;;;12.77;88.32;98313.03;4994744;28;20062;-62
2021/05/17 08:50:10;;;;;;;3.93;1.80;;;;;;;12.70;88.37;98310.69;4995024;28;20077;-61
2021/05/17 08:52:42;;;;;;;3.22;1.80;;;;;;;12.75;88.47;98319.91;4994938;28;20054;-62
2021/05/17 08:55:12;;;;;;;2.67;1.48;;;;;;;12.73;88.46;98305.50;4994875;28;20088;-61
2021/05/17 08:57:45;;;;;;;2.45;1.30;;;;;;;12.81;88.51;98308.66;4994689;28;20097;-61
2021/05/17 09:00:20;;;;;;;2.28;1.25;;;;;;;12.81;88.37;98316.34;4993602;28;20057;-62
2021/05/17 09:02:53;;;;;;;3.15;1.63;;;;;;;12.84;88.21;98313.66;4994500;28;20051;-62
2021/05/17 09:05:24;;;;;;;3.40;1.77;;;;;;;12.87;88.39;98313.56;4994716;28;20054;-61
2021/05/17 09:07:59;;;;;;;4.57;2.15;;;;;;;12.88;88.28;98304.16;4994729;28;20109;-62
2021/05/17 09:10:34;;;;;;;4.28;2.22;;;;;;;12.92;88.18;98296.34;4994879;28;20058;-63
2021/05/17 09:13:06;;;;;;;4.20;2.10;;;;;;;12.95;88.18;98296.25;4994520;28;20039;-62
2021/05/17 09:15:40;;;;;;;3.35;1.73;;;;;;;12.99;88.35;98296.97;4994603;28;20100;-63
2021/05/17 09:18:14;;;;;;;3.20;1.30;;;;;;;13.01;88.26;98301.16;4994541;28;20579;-62
2021/05/17 09:20:46;;;;;;;4.43;2.30;;;;;;;13.05;88.24;98300.16;4994729;28;20064;-61
2021/05/17 09:23:21;;;;;;;6.57;1.70;;;;;;;13.06;88.41;98301.88;4994406;28;20061;-62
2021/05/17 09:26:06;;;;;;;3.58;1.55;;;;;;;13.06;88.55;98299.31;4994373;28;20081;-62
2021/05/17 09:28:41;;;;;;;2.95;1.63;;;;;;;13.09;88.68;98299.22;4994678;28;20427;-62
2021/05/17 09:31:12;;;;;;;4.05;2.80;;;;;;;13.11;88.27;98296.59;4994403;28;20480;-61
2021/05/17 09:33:48;;;;;;;5.78;4.28;;;;;;;13.13;88.43;98300.78;4994461;28;20046;-62
2021/05/17 09:36:25;;;;;;;6.38;3.78;;;;;;;13.14;88.72;98302.47;4994620;28;20052;-61
2021/05/17 09:39:00;;;;;;;4.85;3.08;;;;;;;13.16;88.58;98300.69;4994360;28;20058;-62
2021/05/17 09:41:40;;;;;;;4.82;2.95;;;;;;;13.20;88.49;98302.25;4994097;28;20046;-62
2021/05/17 09:44:14;;;;;;;5.05;2.70;;;;;;;13.23;88.44;98303.88;4993131;28;20053;-61
2021/05/17 09:46:57;;;;;;;3.83;2.10;;;;;;;13.24;88.73;98306.41;4994339;28;20077;-61
2021/05/17 09:49:49;;;;;;;3.53;1.90;;;;;;;13.25;88.44;98300.38;4991996;28;20066;-63
2021/05/17 09:52:21;;;;;;;4.50;1.90;;;;;;;13.26;88.62;98291.81;4991998;28;20188;-62
2021/05/17 09:55:01;;;;;;;3.08;1.73;;;;;;;13.30;88.58;98287.41;4992152;28;20590;-61
2021/05/17 09:57:36;;;;;;;2.13;1.05;;;;;;;13.31;88.24;98295.06;4992218;28;20528;-63
2021/05/17 10:00:12;;;;;;;2.47;1.30;;;;;;;13.31;88.11;98287.38;4992124;28;20062;-63
2021/05/17 10:02:46;;;;;;;4.03;1.33;;;;;;;13.33;88.21;98295.00;4991846;28;20508;-63
2021/05/17 10:05:21;;;;;;;2.42;1.33;;;;;;;13.37;87.91;98284.59;4992181;28;20053;-62
2021/05/17 10:07:56;;;;;;;2.28;0.95;;;;;;;13.44;87.99;98291.16;4993264;28;20515;-63
2021/05/17 10:10:44;;;;;;;3.25;1.00;;;;;;;13.54;87.93;98285.72;4997889;28;20057;-62
2021/05/17 10:13:16;;;;;;;2.53;1.35;;;;;;;13.57;87.98;98285.63;4997870;28;20122;-62
2021/05/17 10:15:49;;;;;;;3.65;1.70;;;;;;;13.63;87.94;98280.28;4997788;28;20381;-62
2021/05/17 10:18:18;;;;;;;3.15;1.88;;;;;;;13.60;87.56;98285.50;4997569;28;20057;-62
2021/05/17 10:20:47;;;;;;;4.35;1.83;;;;;;;13.64;87.91;98279.38;4997687;28;20042;-62
2021/05/17 10:23:17;;;;;;;6.55;2.90;;;;;;;13.62;87.50;98283.72;4997333;28;20097;-61
2021/05/17 10:25:46;;;;;;;6.47;2.67;;;;;;;13.62;87.74;98283.72;4997744;28;20062;-62
2021/05/17 10:28:20;;;;;;;6.60;2.58;;;;;;;13.60;87.95;98280.38;4997482;28;20054;-62
2021/05/17 10:30:53;;;;;;;3.25;1.30;;;;;;;13.59;87.67;98269.28;4998174;28;20546;-61
2021/05/17 10:33:28;;;;;;;2.45;1.30;;;;;;;13.56;87.94;98271.13;4997695;28;20059;-61
2021/05/17 10:36:00;;;;;;;3.28;1.23;;;;;;;13.55;87.78;98272.03;4997513;28;20056;-62
2021/05/17 10:38:36;;;;;;;2.58;1.30;;;;;;;13.51;87.77;98271.28;4997459;28;20066;-61
2021/05/17 10:41:27;;;;;;;2.72;1.05;;;;;;;13.52;87.60;98269.56;4997509;28;20128;-62
2021/05/17 10:44:07;;;;;;;3.05;1.45;;;;;;;13.56;87.85;98268.56;4997405;28;20058;-63
2021/05/17 10:46:41;;;;;;;3.28;1.58;;;;;;;13.60;87.50;98267.56;4997143;28;20050;-62
2021/05/17 10:49:32;;;;;;;7.07;1.67;;;;;;;13.62;87.67;98274.31;4992306;28;20058;-61
2021/05/17 10:52:22;;;;;;;4.82;2.40;;;;;;;13.63;87.63;98264.91;4977886;28;20054;-61
2021/05/17 10:55:02;;;;;;;;;;;;;;;13.61;87.73;98269.22;4978412;28;20054;-62
2021/05/17 10:57:36;;;;;;;5.05;1.75;;;;;;;13.61;87.31;98261.53;4977211;28;20376;-62
2021/05/17 11:03:07;;;;;;;4.03;1.40;;;;;;;13.67;87.42;98271.59;4975226;28;20134;-62
2021/05/17 11:05:39;;;;;;;3.85;2.05;;;;;;;13.68;87.31;98257.84;4977290;28;20054;-62
2021/05/17 11:08:09;;;;;;;3.85;1.98;;;;;;;13.71;87.54;98262.88;4977197;28;20046;-62
2021/05/17 11:10:43;;;;;;;3.75;1.70;;;;;;;13.70;87.73;98264.59;4976531;28;20085;-63
2021/05/17 11:13:15;;;;;;;3.45;1.20;;;;;;;13.70;87.38;98271.50;4977382;28;20051;-62
2021/05/17 11:15:52;;;;;;;2.47;1.25;;;;;;;13.69;87.76;98269.81;4977298;28;20059;-62
2021/05/17 11:18:37;;;;;;;3.83;1.45;;;;;;;13.67;87.30;98261.34;4977240;28;20051;-62
2021/05/17 11:21:11;;;;;;;2.63;1.27;;;;;;;13.66;87.79;98269.91;4977006;28;20145;-61
2021/05/17 11:23:55;;;;;;;2.50;1.42;;;;;;;13.68;87.68;98263.00;4976895;28;20145;-61
2021/05/17 11:26:27;;;;;;;2.42;1.10;;;;;;;13.68;87.45;98263.00;4977168;28;20058;-62
2021/05/17 11:29:28;;;;;;;2.40;1.00;;;;;;;13.73;87.19;98261.09;4975976;28;20055;-62
2021/05/17 11:32:20;;;;;;;2.00;1.10;;;;;;;13.81;87.13;98270.19;4976831;28;20141;-63
2021/05/17 11:35:01;;;;;;;2.92;1.20;;;;;;;13.86;87.02;98273.44;4975799;28;20501;-62
2021/05/17 11:37:34;;;;;;;2.22;1.27;;;;;;;13.94;86.97;98276.53;4976943;28;20515;-62
2021/05/17 11:40:30;;;;;;;2.57;1.03;;;;;;;14.00;87.04;98271.19;4977103;28;20046;-62
2021/05/17 11:43:03;;;;;;;2.65;1.10;;;;;;;14.09;87.09;98277.72;4976561;28;20043;-62
2021/05/17 11:45:37;;;;;;;2.78;1.30;;;;;;;14.20;87.09;98270.47;4976603;28;20055;-62
2021/05/17 11:48:08;;;;;;;3.92;1.08;;;;;;;14.20;86.85;98267.91;4976336;28;20054;-63
2021/05/17 11:50:41;;;;;;;2.08;1.15;;;;;;;14.27;86.61;98269.34;4975803;28;20047;-63
2021/05/17 11:53:14;;;;;;;2.15;0.90;;;;;;;14.26;86.39;98267.66;4976583;28;20459;-61
2021/05/17 11:55:50;;;;;;;2.17;1.27;;;;;;;14.29;86.12;98270.09;4976557;28;20061;-61
2021/05/17 11:58:24;;;;;;;2.15;1.00;;;;;;;14.31;85.79;98275.19;4976423;28;20078;-61
2021/05/17 12:01:17;;;;;;;2.25;0.90;;;;;;;14.34;85.52;98270.81;4976331;28;20455;-62
2021/05/17 12:03:49;;;;;;;2.80;1.00;;;;;;;14.36;85.85;98279.28;4971594;28;20126;-61
2021/05/17 12:06:18;;;;;;;2.40;1.30;;;;;;;14.39;85.65;98274.03;4976123;28;20051;-62
2021/05/17 12:08:47;;;;;;;2.78;1.60;;;;;;;14.47;85.53;98286.53;4976093;28;20137;-62
2021/05/17 12:11:19;;;;;;;3.43;1.60;;;;;;;14.42;85.36;98286.72;4976776;28;20062;-62
2021/05/17 12:13:50;;;;;;;1.98;1.02;;;;;;;14.29;85.12;98287.22;4976156;28;20051;-62
2021/05/17 12:16:25;;;;;;;1.98;0.90;;;;;;;14.20;85.56;98288.41;4976404;28;20058;-62
2021/05/17 12:18:58;;;;;;;1.17;0.80;;;;;;;14.08;85.29;98288.88;4976095;28;20057;-62
2021/05/17 12:21:35;;;;;;;1.35;0.70;;;;;;;14.03;85.29;98296.75;4976095;28;20559;-62
2021/05/17 12:24:08;;;;;;;1.50;0.80;;;;;;;13.89;85.04;98293.00;4975705;28;20061;-61
2021/05/17 12:26:52;;;;;;;1.83;0.90;;;;;;;13.90;85.02;98304.94;4976135;28;20054;-62
2021/05/17 12:29:26;;;;;;;4.18;1.00;;;;;;;13.89;85.40;98300.72;4976004;28;20492;-62